createdAt,value
2018-04-23T00:01:02.631Z,51.30
2018-04-23T00:03:30.076Z,51.30
2018-04-23T00:05:57.547Z,51.50
2018-04-23T00:08:24.993Z,51.80
2018-04-23T00:10:52.453Z,51.70
2018-04-23T00:13:20.681Z,51.90
2018-04-23T00:15:48.151Z,52.40
2018-04-23T00:18:15.660Z,52.10
2018-04-23T00:20:43.883Z,52.80
2018-04-23T00:23:11.346Z,52.10
2018-04-23T00:25:38.792Z,52.40
2018-04-23T00:28:07.017Z,52.40
2018-04-23T00:30:34.461Z,52.40
2018-04-23T00:33:02.692Z,53.10
2018-04-23T00:35:30.233Z,53.10
2018-04-23T00:37:58.452Z,53.10
2018-04-23T00:40:25.893Z,53.10
2018-04-23T00:42:53.355Z,53.20
2018-04-23T00:45:20.809Z,53.20
2018-04-23T00:47:49.038Z,53.50
2018-04-23T00:50:17.266Z,53.80
2018-04-23T00:52:45.500Z,53.50
2018-04-23T00:55:12.953Z,53.80
2018-04-23T00:57:40.417Z,53.70
2018-04-23T01:00:07.864Z,53.60
2018-04-23T01:02:36.093Z,53.80
2018-04-23T01:05:03.549Z,53.70
2018-04-23T01:07:31.008Z,53.70
2018-04-23T01:09:58.469Z,53.90
2018-04-23T01:12:26.691Z,53.50
2018-04-23T01:14:54.154Z,53.40
2018-04-23T01:17:21.609Z,53.70
2018-04-23T01:19:49.069Z,54.20
2018-04-23T01:22:16.521Z,54.40
2018-04-23T01:24:44.748Z,54.40
2018-04-23T01:27:12.210Z,54.40
2018-04-23T01:29:39.671Z,54.70
2018-04-23T01:32:07.134Z,54.80
2018-04-23T01:34:35.361Z,55.10
2018-04-23T01:37:02.817Z,55.00
2018-04-23T01:39:30.286Z,55.40
2018-04-23T01:41:57.741Z,56.00
2018-04-23T01:44:25.201Z,56.70
2018-04-23T01:46:53.438Z,58.30
2018-04-23T01:49:20.899Z,58.30
2018-04-23T01:51:48.341Z,58.30
2018-04-23T01:54:15.812Z,58.40
2018-04-23T01:56:43.261Z,58.40
2018-04-23T01:59:10.735Z,58.40
2018-04-23T02:01:38.946Z,58.70
2018-04-23T02:04:06.392Z,58.70
2018-04-23T02:06:33.866Z,59.10
2018-04-23T02:09:01.322Z,59.40
2018-04-23T02:11:28.789Z,59.30
2018-04-23T02:13:56.245Z,59.30
2018-04-23T02:16:24.478Z,60.00
2018-04-23T02:18:51.942Z,60.00
2018-04-23T02:21:19.401Z,59.50
2018-04-23T02:23:46.874Z,58.10
2018-04-23T02:26:14.337Z,57.70
2018-04-23T02:28:41.813Z,57.50
2018-04-23T02:31:09.303Z,57.10
2018-04-23T02:33:36.758Z,57.20
2018-04-23T02:36:04.235Z,57.40
2018-04-23T02:38:31.688Z,56.80
2018-04-23T02:40:59.144Z,56.80
2018-04-23T02:43:26.613Z,56.70
2018-04-23T02:45:54.832Z,56.40
2018-04-23T02:48:22.294Z,56.40
2018-04-23T02:50:49.758Z,56.30
2018-04-23T02:53:17.230Z,56.70
2018-04-23T02:55:44.806Z,57.20
2018-04-23T02:58:12.244Z,57.50
2018-04-23T03:00:39.705Z,57.70
2018-04-23T03:03:07.165Z,57.70
2018-04-23T03:05:35.400Z,58.20
2018-04-23T03:08:02.896Z,58.10
2018-04-23T03:10:30.361Z,58.10
2018-04-23T03:12:57.812Z,58.00
2018-04-23T03:15:25.286Z,58.00
2018-04-23T03:17:52.728Z,58.30
2018-04-23T03:20:20.193Z,58.50
2018-04-23T03:22:47.652Z,58.50
2018-04-23T03:25:15.124Z,58.70
2018-04-23T03:27:42.579Z,58.90
2018-04-23T03:30:10.800Z,58.90
2018-04-23T03:32:38.271Z,58.90
2018-04-23T03:35:05.720Z,58.30
2018-04-23T03:37:33.184Z,58.60
2018-04-23T03:40:00.647Z,58.50
2018-04-23T03:42:28.100Z,58.50
2018-04-23T03:44:56.319Z,59.30
2018-04-23T03:47:23.790Z,59.30
2018-04-23T03:49:51.389Z,59.80
2018-04-23T03:52:18.856Z,60.20
2018-04-23T03:54:46.321Z,60.10
2018-04-23T03:57:13.787Z,60.00
2018-04-23T03:59:41.251Z,59.80
2018-04-23T04:02:08.715Z,60.00
2018-04-23T04:04:36.165Z,59.90
2018-04-23T04:07:03.641Z,60.30
2018-04-23T04:09:31.118Z,61.20
2018-04-23T04:15:11.852Z,60.50
2018-04-23T04:20:51.964Z,60.80
2018-04-23T04:23:19.405Z,60.90
2018-04-23T04:25:46.870Z,61.10
2018-04-23T04:28:14.326Z,61.50
2018-04-23T04:30:41.793Z,61.00
2018-04-23T04:33:09.241Z,60.90
2018-04-23T04:35:37.497Z,60.30
2018-04-23T04:38:04.937Z,60.20
2018-04-23T04:40:32.389Z,61.20
2018-04-23T04:42:59.845Z,61.30
2018-04-23T04:45:27.311Z,61.30
2018-04-23T04:47:55.546Z,61.10
2018-04-23T04:50:23.016Z,61.00
2018-04-23T04:52:50.486Z,61.20
2018-04-23T04:55:17.950Z,60.50
2018-04-23T04:57:45.430Z,60.40
2018-04-23T05:00:12.881Z,60.90
2018-04-23T05:02:40.342Z,61.30
2018-04-23T05:05:07.806Z,61.70
2018-04-23T05:07:35.272Z,61.20
2018-04-23T05:10:02.726Z,60.70
2018-04-23T05:12:30.191Z,61.40
2018-04-23T05:14:57.645Z,61.50
2018-04-23T05:17:25.869Z,62.70
2018-04-23T05:19:53.329Z,62.60
2018-04-23T05:22:20.785Z,62.90
2018-04-23T05:24:48.252Z,62.90
2018-04-23T05:27:15.724Z,63.30
2018-04-23T05:29:43.173Z,63.40
2018-04-23T05:32:11.406Z,63.00
2018-04-23T05:34:38.861Z,63.00
2018-04-23T05:37:06.325Z,63.50
2018-04-23T05:39:33.785Z,63.10
2018-04-23T05:42:01.249Z,62.50
2018-04-23T05:44:29.490Z,62.00
2018-04-23T05:46:56.999Z,61.90
2018-04-23T05:49:25.217Z,66.70
2018-04-23T05:51:52.679Z,66.60
2018-04-23T05:54:20.134Z,67.30
2018-04-23T05:56:47.605Z,67.60
2018-04-23T05:59:15.098Z,69.30
2018-04-23T06:01:42.584Z,69.10
2018-04-23T06:04:10.033Z,69.80
2018-04-23T06:06:37.510Z,70.70
2018-04-23T06:09:05.733Z,69.60
2018-04-23T06:11:33.198Z,70.10
2018-04-23T06:14:00.686Z,70.70
2018-04-23T06:16:28.147Z,70.50
2018-04-23T06:18:55.611Z,72.10
2018-04-23T06:21:23.077Z,71.10
2018-04-23T06:23:50.534Z,72.20
2018-04-23T06:26:17.999Z,72.90
2018-04-23T06:28:45.458Z,73.40
2018-04-23T06:31:12.921Z,73.50
2018-04-23T06:33:40.377Z,71.90
2018-04-23T06:36:07.845Z,72.50
2018-04-23T06:38:35.313Z,72.90
2018-04-23T06:41:02.775Z,74.40
2018-04-23T06:43:30.446Z,74.50
2018-04-23T06:45:58.662Z,72.30
2018-04-23T06:48:26.127Z,72.30
2018-04-23T06:50:53.669Z,73.40
2018-04-23T06:53:21.141Z,74.10
2018-04-23T06:55:48.610Z,74.80
2018-04-23T06:58:17.098Z,74.90
2018-04-23T07:00:44.589Z,74.80
2018-04-23T07:03:12.061Z,74.80
2018-04-23T07:05:39.574Z,74.40
2018-04-23T07:08:07.033Z,74.50
2018-04-23T07:10:35.271Z,74.70
2018-04-23T07:13:02.739Z,74.80
2018-04-23T07:15:30.188Z,74.80
2018-04-23T07:17:57.662Z,75.10
2018-04-23T07:20:25.885Z,75.60
2018-04-23T07:22:53.354Z,75.50
2018-04-23T07:25:20.806Z,74.90
2018-04-23T07:27:48.281Z,73.60
2018-04-23T07:30:15.746Z,72.80
2018-04-23T07:32:43.221Z,72.80
2018-04-23T07:35:10.677Z,72.80
2018-04-23T07:37:38.144Z,73.30
2018-04-23T07:40:05.598Z,74.00
2018-04-23T07:42:33.834Z,75.20
2018-04-23T07:45:01.295Z,75.20
2018-04-23T07:47:28.767Z,75.10
2018-04-23T07:49:56.217Z,75.10
2018-04-23T07:52:23.686Z,74.90
2018-04-23T07:54:51.142Z,74.20
2018-04-23T07:57:18.611Z,74.60
2018-04-23T07:59:46.065Z,74.10
2018-04-23T08:02:14.302Z,73.60
2018-04-23T08:04:41.753Z,73.60
2018-04-23T08:07:09.230Z,73.70
2018-04-23T08:09:36.693Z,74.10
2018-04-23T08:12:04.153Z,74.20
2018-04-23T08:14:31.613Z,73.80
2018-04-23T08:16:59.109Z,74.40
2018-04-23T08:19:26.571Z,74.70
2018-04-23T08:21:54.037Z,74.50
2018-04-23T08:24:21.494Z,74.80
2018-04-23T08:26:48.969Z,74.10
2018-04-23T08:29:16.425Z,74.10
2018-04-23T08:31:43.934Z,74.90
2018-04-23T08:34:11.359Z,74.30
2018-04-23T08:36:38.821Z,74.70
2018-04-23T08:39:07.051Z,73.60
2018-04-23T08:41:34.501Z,73.60
2018-04-23T08:44:01.978Z,73.80
2018-04-23T08:46:29.429Z,73.60
2018-04-23T08:48:56.957Z,73.00
2018-04-23T08:51:24.362Z,73.60
2018-04-23T08:53:51.830Z,72.90
2018-04-23T08:56:19.286Z,73.70
2018-04-23T08:58:47.518Z,73.30
2018-04-23T09:01:14.977Z,73.30
2018-04-23T09:03:42.436Z,73.40
2018-04-23T09:06:09.894Z,74.00
2018-04-23T09:08:37.361Z,72.00
2018-04-23T09:11:04.820Z,72.20
2018-04-23T09:13:33.053Z,72.60
2018-04-23T09:16:00.510Z,72.60
2018-04-23T09:18:27.987Z,72.20
2018-04-23T09:20:55.525Z,71.40
2018-04-23T09:23:22.995Z,72.00
2018-04-23T09:25:50.467Z,71.10
2018-04-23T09:28:18.698Z,70.60
2018-04-23T09:30:46.164Z,70.50
2018-04-23T09:33:13.619Z,70.70
2018-04-23T09:35:41.141Z,70.00
2018-04-23T09:38:08.598Z,69.80
2018-04-23T09:40:36.055Z,67.00
2018-04-23T09:43:03.594Z,67.10
2018-04-23T09:45:31.066Z,67.60
2018-04-23T09:47:58.522Z,67.10
2018-04-23T09:50:25.987Z,68.40
2018-04-23T09:52:53.474Z,67.00
2018-04-23T09:55:20.957Z,66.70
2018-04-23T09:57:48.461Z,66.60
2018-04-23T10:00:21.558Z,66.40
2018-04-23T10:02:49.013Z,65.90
2018-04-23T10:05:17.992Z,65.90
2018-04-23T10:07:45.449Z,65.90
2018-04-23T10:10:12.923Z,65.40
2018-04-23T10:12:40.373Z,64.60
2018-04-23T10:15:07.852Z,62.50
2018-04-23T10:17:35.317Z,61.30
2018-04-23T10:20:02.770Z,61.40
2018-04-23T10:22:30.235Z,62.10
2018-04-23T10:24:58.461Z,62.90
2018-04-23T10:27:25.928Z,62.90
2018-04-23T10:29:53.385Z,63.90
2018-04-23T10:32:20.857Z,62.40
2018-04-23T10:34:48.305Z,63.70
2018-04-23T10:37:15.770Z,62.40
2018-04-23T10:39:43.225Z,64.50
2018-04-23T10:42:11.461Z,63.50
2018-04-23T10:44:38.920Z,63.50
2018-04-23T10:47:06.397Z,62.50
2018-04-23T10:49:33.845Z,62.40
2018-04-23T10:52:01.310Z,62.00
2018-04-23T10:54:28.766Z,60.50
2018-04-23T10:56:56.997Z,62.00
2018-04-23T10:59:24.449Z,62.00
2018-04-23T11:01:51.935Z,61.90
2018-04-23T11:04:19.374Z,62.30
2018-04-23T11:06:46.842Z,61.90
2018-04-23T11:09:14.302Z,61.70
2018-04-23T11:11:41.757Z,61.00
2018-04-23T11:14:09.982Z,61.80
2018-04-23T11:16:37.440Z,61.70
2018-04-23T11:19:04.898Z,62.10
2018-04-23T11:21:32.350Z,63.80
2018-04-23T11:24:00.582Z,62.30
2018-04-23T11:26:28.041Z,62.30
2018-04-23T11:28:55.517Z,62.60
2018-04-23T11:31:22.975Z,63.60
2018-04-23T11:33:50.541Z,63.40
2018-04-23T11:36:17.990Z,62.80
2018-04-23T11:38:46.258Z,62.80
2018-04-23T11:41:13.664Z,62.80
2018-04-23T11:43:41.142Z,63.90
2018-04-23T11:46:08.599Z,63.80
2018-04-23T11:48:36.065Z,64.40
2018-04-23T11:51:03.529Z,64.60
2018-04-23T11:53:30.998Z,65.60
2018-04-23T11:55:58.459Z,66.80
2018-04-23T11:58:26.690Z,65.20
2018-04-23T12:00:54.149Z,65.20
2018-04-23T12:03:21.613Z,64.00
2018-04-23T12:05:49.069Z,63.00
2018-04-23T12:08:16.539Z,62.20
2018-04-23T12:10:44.045Z,63.10
2018-04-23T12:13:11.481Z,62.30
2018-04-23T12:15:38.958Z,62.90
2018-04-23T12:18:06.449Z,60.80
2018-04-23T12:20:33.905Z,60.90
2018-04-23T12:23:01.374Z,61.50
2018-04-23T12:25:28.834Z,60.80
2018-04-23T12:27:56.298Z,61.30
2018-04-23T12:30:23.763Z,61.00
2018-04-23T12:32:51.233Z,60.40
2018-04-23T12:35:18.685Z,60.80
2018-04-23T12:37:46.926Z,61.10
2018-04-23T12:40:14.377Z,61.10
2018-04-23T12:42:41.895Z,61.70
2018-04-23T12:45:09.305Z,61.10
2018-04-23T12:47:36.771Z,59.90
2018-04-23T12:50:04.226Z,59.40
2018-04-23T12:52:31.682Z,57.10
2018-04-23T12:54:59.915Z,53.70
2018-04-23T12:57:27.369Z,53.70
2018-04-23T12:59:54.837Z,53.60
2018-04-23T13:02:22.298Z,52.10
2018-04-23T13:04:49.770Z,50.40
2018-04-23T13:07:17.231Z,49.80
2018-04-23T13:09:44.702Z,52.00
2018-04-23T13:12:12.191Z,52.60
2018-04-23T13:14:40.378Z,53.70
2018-04-23T13:17:07.846Z,53.70
2018-04-23T13:19:35.306Z,50.40
2018-04-23T13:22:02.749Z,51.20
2018-04-23T13:24:30.218Z,50.20
2018-04-23T13:26:58.440Z,49.50
2018-04-23T13:29:25.913Z,49.50
2018-04-23T13:31:53.370Z,50.80
2018-04-23T13:34:20.842Z,51.00
2018-04-23T13:36:48.344Z,50.20
2018-04-23T13:39:15.758Z,48.50
2018-04-23T13:41:43.209Z,48.70
2018-04-23T13:44:11.437Z,51.20
2018-04-23T13:46:40.532Z,51.00
2018-04-23T13:49:07.993Z,51.00
2018-04-23T13:51:35.446Z,50.60
2018-04-23T13:54:03.668Z,52.00
2018-04-23T13:56:31.126Z,52.00
2018-04-23T13:58:58.594Z,50.50
2018-04-23T14:01:26.101Z,49.60
2018-04-23T14:03:53.514Z,51.10
2018-04-23T14:06:21.754Z,58.70
2018-04-23T14:08:49.227Z,58.70
2018-04-23T14:11:16.679Z,60.00
2018-04-23T14:13:44.133Z,61.50
2018-04-23T14:16:11.669Z,63.40
2018-04-23T14:18:39.909Z,62.10
2018-04-23T14:21:07.404Z,62.10
2018-04-23T14:23:34.870Z,63.50
2018-04-23T14:26:02.325Z,63.50
2018-04-23T14:28:29.791Z,64.40
2018-04-23T14:30:57.250Z,64.20
2018-04-23T14:33:24.713Z,62.80
2018-04-23T14:35:52.179Z,61.70
2018-04-23T14:38:19.643Z,60.80
2018-04-23T14:40:47.109Z,60.50
2018-04-23T14:43:14.586Z,61.40
2018-04-23T14:45:42.050Z,60.90
2018-04-23T14:48:09.513Z,61.10
2018-04-23T14:50:36.974Z,61.20
2018-04-23T14:53:05.356Z,62.80
2018-04-23T14:55:33.719Z,60.50
2018-04-23T14:58:01.173Z,59.70
2018-04-23T15:00:28.638Z,59.50
2018-04-23T15:02:56.097Z,59.30
2018-04-23T15:05:24.529Z,59.20
2018-04-23T15:07:52.749Z,59.00
2018-04-23T15:10:20.224Z,59.00
2018-04-23T15:12:47.664Z,58.70
2018-04-23T15:15:15.130Z,57.50
2018-04-23T15:17:43.346Z,56.40
2018-04-23T15:20:10.816Z,56.30
2018-04-23T15:22:38.270Z,57.40
2018-04-23T15:25:05.736Z,55.80
2018-04-23T15:27:33.189Z,55.40
2018-04-23T15:30:01.457Z,53.80
2018-04-23T15:32:30.423Z,53.30
2018-04-23T15:34:57.897Z,53.20
2018-04-23T15:37:25.363Z,53.00
2018-04-23T15:39:52.829Z,53.50
2018-04-23T15:42:20.301Z,54.30
2018-04-23T15:44:47.763Z,54.50
2018-04-23T15:47:15.264Z,55.20
2018-04-23T15:49:42.697Z,55.70
2018-04-23T15:52:10.154Z,55.40
2018-04-23T15:54:37.662Z,56.10
2018-04-23T15:57:05.117Z,54.70
2018-04-23T15:59:32.594Z,53.60
2018-04-23T16:02:00.059Z,54.40
2018-04-23T16:04:27.529Z,55.50
2018-04-23T16:06:54.998Z,52.70
2018-04-23T16:09:22.481Z,53.00
2018-04-23T16:11:49.953Z,52.30
2018-04-23T16:14:17.425Z,51.70
2018-04-23T16:16:44.977Z,51.60
2018-04-23T16:19:12.436Z,52.00
2018-04-23T16:21:39.888Z,51.00
2018-04-23T16:24:07.355Z,51.20
2018-04-23T16:26:34.802Z,51.70
2018-04-23T16:29:05.084Z,51.30
2018-04-23T16:31:32.532Z,51.80
2018-04-23T16:33:59.994Z,52.20
2018-04-23T16:36:27.460Z,51.70
2018-04-23T16:38:55.685Z,53.10
2018-04-23T16:41:23.149Z,53.00
2018-04-23T16:43:50.608Z,52.40
2018-04-23T16:46:18.063Z,52.30
2018-04-23T16:48:45.529Z,53.90
2018-04-23T16:51:13.749Z,53.70
2018-04-23T16:53:41.208Z,53.70
2018-04-23T16:56:08.665Z,53.20
2018-04-23T16:58:36.138Z,53.70
2018-04-23T17:01:03.591Z,53.80
2018-04-23T17:03:31.045Z,54.60
2018-04-23T17:05:59.282Z,55.80
2018-04-23T17:08:26.735Z,55.80
2018-04-23T17:10:54.201Z,56.00
2018-04-23T17:13:21.653Z,56.90
2018-04-23T17:15:49.121Z,57.50
2018-04-23T17:18:16.577Z,57.20
2018-04-23T17:20:44.810Z,57.60
2018-04-23T17:23:12.265Z,57.60
2018-04-23T17:25:39.729Z,58.20
2018-04-23T17:28:07.186Z,58.70
2018-04-23T17:30:34.653Z,59.10
2018-04-23T17:33:02.106Z,59.90
2018-04-23T17:35:30.349Z,60.60
2018-04-23T17:37:57.809Z,60.50
2018-04-23T17:40:25.277Z,60.70
2018-04-23T17:42:52.730Z,61.00
2018-04-23T17:45:20.219Z,61.50
2018-04-23T17:47:47.663Z,62.20
2018-04-23T17:50:15.143Z,62.50
2018-04-23T17:52:42.610Z,62.20
2018-04-23T17:55:10.082Z,62.50
2018-04-23T17:57:37.535Z,62.80
2018-04-23T18:00:05.007Z,63.40
2018-04-23T18:02:32.454Z,63.40
2018-04-23T18:05:00.689Z,63.90
2018-04-23T18:07:28.146Z,63.70
2018-04-23T18:09:55.611Z,63.80
2018-04-23T18:12:23.082Z,64.20
2018-04-23T18:14:50.552Z,64.10
2018-04-23T18:17:17.993Z,64.70
2018-04-23T18:19:46.281Z,64.80
2018-04-23T18:22:14.505Z,64.80
2018-04-23T18:24:41.969Z,64.80
2018-04-23T18:27:09.426Z,64.90
2018-04-23T18:29:36.897Z,65.30
2018-04-23T18:32:04.374Z,65.30
2018-04-23T18:34:31.883Z,65.50
2018-04-23T18:36:59.394Z,65.60
2018-04-23T18:39:26.861Z,66.10
2018-04-23T18:41:54.317Z,66.40
2018-04-23T18:44:22.546Z,66.70
2018-04-23T18:46:50.087Z,66.70
2018-04-23T18:49:17.670Z,66.90
2018-04-23T18:51:45.117Z,67.00
2018-04-23T18:54:13.354Z,67.50
2018-04-23T18:56:40.814Z,67.50
2018-04-23T18:59:08.281Z,67.20
2018-04-23T19:01:35.737Z,67.30
2018-04-23T19:04:03.200Z,67.40
2018-04-23T19:06:30.676Z,67.40
2018-04-23T19:08:58.130Z,67.30
2018-04-23T19:11:25.670Z,67.40
2018-04-23T19:13:53.912Z,66.80
2018-04-23T19:16:21.364Z,66.80
2018-04-23T19:18:48.821Z,66.90
2018-04-23T19:21:16.286Z,67.00
2018-04-23T19:23:44.585Z,66.30
2018-04-23T19:26:12.809Z,66.60
2018-04-23T19:28:40.268Z,66.50
2018-04-23T19:31:07.740Z,66.00
2018-04-23T19:33:35.193Z,65.70
2018-04-23T19:36:02.665Z,65.50
2018-04-23T19:38:30.126Z,65.10
2018-04-23T19:40:57.607Z,65.00
2018-04-23T19:43:25.117Z,64.40
2018-04-23T19:45:52.586Z,64.10
2018-04-23T19:48:20.037Z,62.80
2018-04-23T19:50:47.563Z,62.60
2018-04-23T19:53:15.781Z,61.70
2018-04-23T19:55:43.241Z,61.80
2018-04-23T19:58:10.894Z,61.80
2018-04-23T20:00:38.320Z,61.70
2018-04-23T20:03:05.749Z,61.80
2018-04-23T20:05:33.221Z,61.50
2018-04-23T20:08:00.681Z,61.80
2018-04-23T20:10:28.556Z,61.70
2018-04-23T20:12:56.077Z,62.00
2018-04-23T20:15:23.554Z,61.50
2018-04-23T20:17:51.013Z,61.40
2018-04-23T20:20:18.474Z,61.70
2018-04-23T20:22:45.991Z,61.30
2018-04-23T20:25:13.454Z,60.80
2018-04-23T20:27:40.903Z,61.10
2018-04-23T20:30:09.138Z,60.80
2018-04-23T20:32:36.590Z,60.70
2018-04-23T20:35:04.056Z,60.50
2018-04-23T20:37:31.550Z,60.50
2018-04-23T20:39:59.765Z,60.50
2018-04-23T20:42:27.259Z,60.50
2018-04-23T20:44:54.709Z,60.70
2018-04-23T20:47:22.157Z,61.20
2018-04-23T20:49:49.666Z,61.40
2018-04-23T20:52:17.897Z,61.60
2018-04-23T20:54:45.478Z,61.50
2018-04-23T20:57:12.921Z,61.70
2018-04-23T20:59:40.389Z,61.80
2018-04-23T21:02:07.845Z,61.90
2018-04-23T21:04:35.500Z,61.40
2018-04-23T21:07:02.984Z,61.40
2018-04-23T21:09:31.202Z,61.80
2018-04-23T21:11:58.665Z,61.80
2018-04-23T21:14:26.122Z,62.40
2018-04-23T21:16:53.605Z,61.70
2018-04-23T21:19:21.876Z,60.80
2018-04-23T21:21:49.338Z,60.70
2018-04-23T21:24:17.549Z,59.50
2018-04-23T21:26:45.021Z,59.50
2018-04-23T21:29:12.537Z,59.30
2018-04-23T21:31:39.998Z,59.20
2018-04-23T21:34:07.464Z,59.10
2018-04-23T21:36:34.913Z,59.40
2018-04-23T21:39:02.378Z,59.10
2018-04-23T21:41:29.842Z,58.80
2018-04-23T21:43:57.370Z,58.80
2018-04-23T21:46:25.593Z,59.10
2018-04-23T21:48:53.046Z,59.10
2018-04-23T21:51:20.507Z,58.80
2018-04-23T21:53:47.961Z,58.90
2018-04-23T21:56:16.186Z,59.40
2018-04-23T21:58:43.642Z,59.30
2018-04-23T22:01:11.100Z,59.80
2018-04-23T22:03:38.554Z,59.30
2018-04-23T22:06:06.785Z,59.50
2018-04-23T22:08:34.237Z,59.50
2018-04-23T22:11:01.695Z,59.20
2018-04-23T22:13:29.164Z,59.00
2018-04-23T22:15:56.625Z,58.90
2018-04-23T22:18:24.853Z,58.70
2018-04-23T22:20:52.309Z,58.70
2018-04-23T22:23:19.765Z,58.40
2018-04-23T22:25:47.249Z,58.90
2018-04-23T22:28:14.700Z,58.50
2018-04-23T22:30:42.157Z,58.80
2018-04-23T22:33:10.389Z,59.40
2018-04-23T22:35:37.856Z,59.30
2018-04-23T22:38:05.314Z,59.70
2018-04-23T22:40:32.778Z,59.90
2018-04-23T22:43:00.234Z,60.20
2018-04-23T22:45:27.707Z,60.10
2018-04-23T22:47:55.158Z,61.20
2018-04-23T22:50:23.451Z,61.20
2018-04-23T22:52:50.834Z,61.20
2018-04-23T22:55:18.298Z,61.60
2018-04-23T22:57:45.746Z,61.50
2018-04-23T23:00:13.982Z,61.80
2018-04-23T23:02:41.429Z,61.80
2018-04-23T23:05:08.886Z,62.40
2018-04-23T23:07:36.342Z,62.60
2018-04-23T23:10:04.571Z,62.90
2018-04-23T23:12:32.023Z,62.90
2018-04-23T23:14:59.466Z,62.90
2018-04-23T23:17:27.695Z,64.30
2018-04-23T23:19:55.149Z,63.60
2018-04-23T23:22:22.611Z,64.00
2018-04-23T23:24:50.061Z,64.00
2018-04-23T23:27:17.524Z,64.00
2018-04-23T23:29:45.753Z,64.40
2018-04-23T23:32:13.217Z,64.30
2018-04-23T23:34:40.668Z,64.80
2018-04-23T23:37:08.129Z,65.10
2018-04-23T23:39:35.586Z,65.50
2018-04-23T23:42:03.859Z,65.40
2018-04-23T23:44:31.313Z,65.30
2018-04-23T23:46:58.769Z,65.40
2018-04-23T23:49:26.220Z,65.40
2018-04-23T23:51:53.681Z,65.50
2018-04-23T23:54:21.138Z,65.80
2018-04-23T23:56:48.592Z,66.00
2018-04-23T23:59:16.049Z,66.00
